sensor_id;sensor_type;location;lat;lon;timestamp;temperature;humidity
11597;DHT22;5854;48.072;16.286;2023-02-13T00:02:08;5.60;69.90
11597;DHT22;5854;48.072;16.286;2023-02-13T00:04:35;5.60;70.20
11597;DHT22;5854;48.072;16.286;2023-02-13T00:07:02;5.60;70.20
11597;DHT22;5854;48.072;16.286;2023-02-13T00:09:29;5.60;70.10
11597;DHT22;5854;48.072;16.286;2023-02-13T00:11:56;5.60;70.20
11597;DHT22;5854;48.072;16.286;2023-02-13T00:14:23;5.70;70.50
11597;DHT22;5854;48.072;16.286;2023-02-13T00:16:52;5.60;69.60
11597;DHT22;5854;48.072;16.286;2023-02-13T00:19:19;5.60;69.40
11597;DHT22;5854;48.072;16.286;2023-02-13T00:21:46;5.60;69.00
11597;DHT22;5854;48.072;16.286;2023-02-13T00:24:13;5.60;69.70
11597;DHT22;5854;48.072;16.286;2023-02-13T00:26:40;5.60;70.90
11597;DHT22;5854;48.072;16.286;2023-02-13T00:29:07;5.60;69.50
11597;DHT22;5854;48.072;16.286;2023-02-13T00:31:34;5.60;69.50
11597;DHT22;5854;48.072;16.286;2023-02-13T00:34:03;5.50;69.40
11597;DHT22;5854;48.072;16.286;2023-02-13T00:36:30;5.50;70.20
11597;DHT22;5854;48.072;16.286;2023-02-13T00:38:57;5.50;70.50
11597;DHT22;5854;48.072;16.286;2023-02-13T00:41:24;5.40;70.00
11597;DHT22;5854;48.072;16.286;2023-02-13T00:43:51;5.50;69.60
11597;DHT22;5854;48.072;16.286;2023-02-13T00:46:18;5.40;70.00
11597;DHT22;5854;48.072;16.286;2023-02-13T00:48:46;5.40;69.60
11597;DHT22;5854;48.072;16.286;2023-02-13T00:51:14;5.40;69.50
11597;DHT22;5854;48.072;16.286;2023-02-13T00:53:41;5.40;70.00
11597;DHT22;5854;48.072;16.286;2023-02-13T00:56:08;5.30;69.60
11597;DHT22;5854;48.072;16.286;2023-02-13T00:58:36;5.30;70.10
11597;DHT22;5854;48.072;16.286;2023-02-13T01:01:03;5.30;69.50
11597;DHT22;5854;48.072;16.286;2023-02-13T01:03:31;5.30;69.70
11597;DHT22;5854;48.072;16.286;2023-02-13T01:05:58;5.30;69.80
11597;DHT22;5854;48.072;16.286;2023-02-13T01:08:26;5.30;69.30
11597;DHT22;5854;48.072;16.286;2023-02-13T01:10:54;5.20;68.50
11597;DHT22;5854;48.072;16.286;2023-02-13T01:13:21;5.10;70.40
11597;DHT22;5854;48.072;16.286;2023-02-13T01:15:49;5.20;70.00
11597;DHT22;5854;48.072;16.286;2023-02-13T01:18:18;5.10;69.50
11597;DHT22;5854;48.072;16.286;2023-02-13T01:20:56;5.10;69.90
11597;DHT22;5854;48.072;16.286;2023-02-13T01:23:26;5.10;69.20
11597;DHT22;5854;48.072;16.286;2023-02-13T01:25:55;5.20;70.50
11597;DHT22;5854;48.072;16.286;2023-02-13T01:28:22;5.20;69.00
11597;DHT22;5854;48.072;16.286;2023-02-13T01:30:53;5.20;68.80
11597;DHT22;5854;48.072;16.286;2023-02-13T01:33:21;5.20;70.00
11597;DHT22;5854;48.072;16.286;2023-02-13T01:35:48;5.20;69.80
11597;DHT22;5854;48.072;16.286;2023-02-13T01:38:15;5.10;68.80
11597;DHT22;5854;48.072;16.286;2023-02-13T01:40:47;5.10;68.60
11597;DHT22;5854;48.072;16.286;2023-02-13T01:43:15;5.10;69.40
11597;DHT22;5854;48.072;16.286;2023-02-13T01:45:43;5.10;69.50
11597;DHT22;5854;48.072;16.286;2023-02-13T01:48:16;5.00;69.60
11597;DHT22;5854;48.072;16.286;2023-02-13T01:50:47;5.00;70.70
11597;DHT22;5854;48.072;16.286;2023-02-13T01:53:17;5.10;70.50
11597;DHT22;5854;48.072;16.286;2023-02-13T01:55:51;5.00;69.90
11597;DHT22;5854;48.072;16.286;2023-02-13T01:58:23;5.10;70.10
11597;DHT22;5854;48.072;16.286;2023-02-13T02:00:51;5.00;70.10
11597;DHT22;5854;48.072;16.286;2023-02-13T02:03:21;5.00;70.70
11597;DHT22;5854;48.072;16.286;2023-02-13T02:05:51;5.00;70.40
11597;DHT22;5854;48.072;16.286;2023-02-13T02:08:21;5.00;70.70
11597;DHT22;5854;48.072;16.286;2023-02-13T02:10:50;5.00;70.30
11597;DHT22;5854;48.072;16.286;2023-02-13T02:13:19;5.00;70.30
11597;DHT22;5854;48.072;16.286;2023-02-13T02:15:47;5.00;70.40
11597;DHT22;5854;48.072;16.286;2023-02-13T02:18:17;5.00;70.50
11597;DHT22;5854;48.072;16.286;2023-02-13T02:21:09;5.00;70.30
11597;DHT22;5854;48.072;16.286;2023-02-13T02:24:34;5.00;69.70
11597;DHT22;5854;48.072;16.286;2023-02-13T02:30:47;5.00;69.50
11597;DHT22;5854;48.072;16.286;2023-02-13T02:33:41;4.90;69.60
11597;DHT22;5854;48.072;16.286;2023-02-13T02:36:25;4.90;70.30
11597;DHT22;5854;48.072;16.286;2023-02-13T02:39:07;4.90;69.20
11597;DHT22;5854;48.072;16.286;2023-02-13T02:41:53;5.00;69.90
11597;DHT22;5854;48.072;16.286;2023-02-13T02:44:31;5.00;69.40
11597;DHT22;5854;48.072;16.286;2023-02-13T02:47:16;5.00;69.00
11597;DHT22;5854;48.072;16.286;2023-02-13T02:50:23;5.00;69.40
11597;DHT22;5854;48.072;16.286;2023-02-13T02:53:07;5.00;69.30
11597;DHT22;5854;48.072;16.286;2023-02-13T02:55:47;5.00;69.00
11597;DHT22;5854;48.072;16.286;2023-02-13T02:58:20;5.00;69.20
11597;DHT22;5854;48.072;16.286;2023-02-13T03:01:08;5.10;68.40
11597;DHT22;5854;48.072;16.286;2023-02-13T03:03:56;5.10;68.70
11597;DHT22;5854;48.072;16.286;2023-02-13T03:06:47;5.10;68.30
11597;DHT22;5854;48.072;16.286;2023-02-13T03:09:21;5.10;68.40
11597;DHT22;5854;48.072;16.286;2023-02-13T03:12:07;5.10;67.90
11597;DHT22;5854;48.072;16.286;2023-02-13T03:14:53;5.10;68.10
11597;DHT22;5854;48.072;16.286;2023-02-13T03:17:20;5.00;67.50
11597;DHT22;5854;48.072;16.286;2023-02-13T03:20:13;5.00;67.70
11597;DHT22;5854;48.072;16.286;2023-02-13T03:23:11;5.10;67.80
11597;DHT22;5854;48.072;16.286;2023-02-13T03:25:50;5.10;67.80
11597;DHT22;5854;48.072;16.286;2023-02-13T03:28:30;5.10;67.90
11597;DHT22;5854;48.072;16.286;2023-02-13T03:31:27;5.00;67.00
11597;DHT22;5854;48.072;16.286;2023-02-13T03:34:02;5.00;68.00
11597;DHT22;5854;48.072;16.286;2023-02-13T03:36:37;5.10;67.90
11597;DHT22;5854;48.072;16.286;2023-02-13T03:39:36;5.10;67.80
11597;DHT22;5854;48.072;16.286;2023-02-13T03:42:14;5.10;67.70
11597;DHT22;5854;48.072;16.286;2023-02-13T03:44:50;5.20;67.40
11597;DHT22;5854;48.072;16.286;2023-02-13T03:47:34;5.10;67.50
11597;DHT22;5854;48.072;16.286;2023-02-13T03:50:02;5.10;67.80
11597;DHT22;5854;48.072;16.286;2023-02-13T03:52:35;5.10;67.60
11597;DHT22;5854;48.072;16.286;2023-02-13T03:55:09;5.10;67.90
11597;DHT22;5854;48.072;16.286;2023-02-13T03:57:58;5.10;67.70
11597;DHT22;5854;48.072;16.286;2023-02-13T04:00:48;5.10;67.70
11597;DHT22;5854;48.072;16.286;2023-02-13T04:03:23;5.00;67.20
11597;DHT22;5854;48.072;16.286;2023-02-13T04:05:56;5.00;67.80
11597;DHT22;5854;48.072;16.286;2023-02-13T04:08:28;5.10;68.10
11597;DHT22;5854;48.072;16.286;2023-02-13T04:11:02;5.00;67.70
11597;DHT22;5854;48.072;16.286;2023-02-13T04:13:35;5.00;68.00
11597;DHT22;5854;48.072;16.286;2023-02-13T04:16:08;5.00;68.00
11597;DHT22;5854;48.072;16.286;2023-02-13T04:18:37;5.00;68.10
11597;DHT22;5854;48.072;16.286;2023-02-13T04:21:06;5.00;68.00
11597;DHT22;5854;48.072;16.286;2023-02-13T04:23:33;5.00;67.80
11597;DHT22;5854;48.072;16.286;2023-02-13T04:26:05;5.00;67.40
11597;DHT22;5854;48.072;16.286;2023-02-13T04:28:34;5.00;67.90
11597;DHT22;5854;48.072;16.286;2023-02-13T04:31:02;5.00;68.00
11597;DHT22;5854;48.072;16.286;2023-02-13T04:33:29;5.00;68.10
11597;DHT22;5854;48.072;16.286;2023-02-13T04:35:56;5.00;67.60
11597;DHT22;5854;48.072;16.286;2023-02-13T04:38:23;5.00;67.90
11597;DHT22;5854;48.072;16.286;2023-02-13T04:40:50;5.00;67.80
11597;DHT22;5854;48.072;16.286;2023-02-13T04:43:18;5.00;67.80
11597;DHT22;5854;48.072;16.286;2023-02-13T04:45:47;5.00;67.60
11597;DHT22;5854;48.072;16.286;2023-02-13T04:48:14;5.00;67.60
11597;DHT22;5854;48.072;16.286;2023-02-13T04:50:41;5.00;67.50
11597;DHT22;5854;48.072;16.286;2023-02-13T04:53:08;5.00;67.60
11597;DHT22;5854;48.072;16.286;2023-02-13T04:55:35;5.00;67.60
11597;DHT22;5854;48.072;16.286;2023-02-13T04:58:04;5.00;67.70
11597;DHT22;5854;48.072;16.286;2023-02-13T05:00:32;5.00;67.70
11597;DHT22;5854;48.072;16.286;2023-02-13T05:03:03;5.10;67.80
11597;DHT22;5854;48.072;16.286;2023-02-13T05:05:30;5.00;67.30
11597;DHT22;5854;48.072;16.286;2023-02-13T05:07:57;5.10;67.80
11597;DHT22;5854;48.072;16.286;2023-02-13T05:10:24;5.10;67.60
11597;DHT22;5854;48.072;16.286;2023-02-13T05:12:52;5.10;67.60
11597;DHT22;5854;48.072;16.286;2023-02-13T05:15:19;5.10;67.50
11597;DHT22;5854;48.072;16.286;2023-02-13T05:17:49;5.10;67.50
11597;DHT22;5854;48.072;16.286;2023-02-13T05:20:16;5.10;67.60
11597;DHT22;5854;48.072;16.286;2023-02-13T05:22:44;5.10;67.50
11597;DHT22;5854;48.072;16.286;2023-02-13T05:25:28;5.10;67.30
11597;DHT22;5854;48.072;16.286;2023-02-13T05:27:55;5.10;67.30
11597;DHT22;5854;48.072;16.286;2023-02-13T05:30:22;5.20;67.10
11597;DHT22;5854;48.072;16.286;2023-02-13T05:32:50;5.20;68.10
11597;DHT22;5854;48.072;16.286;2023-02-13T05:35:17;5.20;67.50
11597;DHT22;5854;48.072;16.286;2023-02-13T05:37:45;5.20;67.10
11597;DHT22;5854;48.072;16.286;2023-02-13T05:40:12;5.20;66.70
11597;DHT22;5854;48.072;16.286;2023-02-13T05:42:40;5.20;66.20
11597;DHT22;5854;48.072;16.286;2023-02-13T05:45:08;5.20;66.10
11597;DHT22;5854;48.072;16.286;2023-02-13T05:47:36;5.30;66.50
11597;DHT22;5854;48.072;16.286;2023-02-13T05:50:05;5.30;66.50
11597;DHT22;5854;48.072;16.286;2023-02-13T05:52:33;5.20;66.30
11597;DHT22;5854;48.072;16.286;2023-02-13T05:55:00;5.20;66.20
11597;DHT22;5854;48.072;16.286;2023-02-13T05:57:28;5.30;67.30
11597;DHT22;5854;48.072;16.286;2023-02-13T05:59:55;5.20;66.60
11597;DHT22;5854;48.072;16.286;2023-02-13T06:02:23;5.20;66.60
11597;DHT22;5854;48.072;16.286;2023-02-13T06:04:50;5.20;66.40
11597;DHT22;5854;48.072;16.286;2023-02-13T06:07:18;5.20;66.60
11597;DHT22;5854;48.072;16.286;2023-02-13T06:09:52;5.20;66.40
11597;DHT22;5854;48.072;16.286;2023-02-13T06:12:24;5.20;66.30
11597;DHT22;5854;48.072;16.286;2023-02-13T06:14:52;5.20;66.40
11597;DHT22;5854;48.072;16.286;2023-02-13T06:17:21;5.20;66.30
11597;DHT22;5854;48.072;16.286;2023-02-13T06:19:58;5.20;66.10
11597;DHT22;5854;48.072;16.286;2023-02-13T06:22:27;5.30;66.50
11597;DHT22;5854;48.072;16.286;2023-02-13T06:24:56;5.30;66.20
11597;DHT22;5854;48.072;16.286;2023-02-13T06:29:59;5.30;66.40
11597;DHT22;5854;48.072;16.286;2023-02-13T06:32:26;5.30;67.00
11597;DHT22;5854;48.072;16.286;2023-02-13T06:34:53;5.70;81.30
11597;DHT22;5854;48.072;16.286;2023-02-13T06:37:20;6.00;72.30
11597;DHT22;5854;48.072;16.286;2023-02-13T06:42:24;5.80;70.00
11597;DHT22;5854;48.072;16.286;2023-02-13T06:44:51;5.80;65.80
11597;DHT22;5854;48.072;16.286;2023-02-13T06:47:18;5.70;65.00
11597;DHT22;5854;48.072;16.286;2023-02-13T06:49:45;5.60;65.20
11597;DHT22;5854;48.072;16.286;2023-02-13T06:52:13;5.60;66.10
11597;DHT22;5854;48.072;16.286;2023-02-13T06:54:40;5.60;65.90
11597;DHT22;5854;48.072;16.286;2023-02-13T06:57:07;5.50;65.70
11597;DHT22;5854;48.072;16.286;2023-02-13T06:59:36;5.50;65.80
11597;DHT22;5854;48.072;16.286;2023-02-13T07:02:03;5.50;65.60
11597;DHT22;5854;48.072;16.286;2023-02-13T07:04:30;5.60;65.70
11597;DHT22;5854;48.072;16.286;2023-02-13T07:06:58;5.50;65.90
11597;DHT22;5854;48.072;16.286;2023-02-13T07:09:25;5.50;66.00
11597;DHT22;5854;48.072;16.286;2023-02-13T07:11:53;5.50;66.10
11597;DHT22;5854;48.072;16.286;2023-02-13T07:16:58;5.80;66.80
11597;DHT22;5854;48.072;16.286;2023-02-13T07:19:29;5.70;65.40
11597;DHT22;5854;48.072;16.286;2023-02-13T07:22:02;5.70;65.80
11597;DHT22;5854;48.072;16.286;2023-02-13T07:24:30;5.70;66.00
11597;DHT22;5854;48.072;16.286;2023-02-13T07:27:00;5.70;66.70
11597;DHT22;5854;48.072;16.286;2023-02-13T07:29:28;5.70;66.20
11597;DHT22;5854;48.072;16.286;2023-02-13T07:32:02;5.80;65.80
11597;DHT22;5854;48.072;16.286;2023-02-13T07:37:20;5.70;65.30
11597;DHT22;5854;48.072;16.286;2023-02-13T07:39:48;5.70;65.50
11597;DHT22;5854;48.072;16.286;2023-02-13T11:14:21;6.50;65.30
11597;DHT22;5854;48.072;16.286;2023-02-13T11:16:55;6.60;66.40
11597;DHT22;5854;48.072;16.286;2023-02-13T11:22:13;6.70;65.90
11597;DHT22;5854;48.072;16.286;2023-02-13T11:24:52;6.70;64.90
11597;DHT22;5854;48.072;16.286;2023-02-13T11:27:23;6.70;64.70
11597;DHT22;5854;48.072;16.286;2023-02-13T11:29:56;6.80;65.00
11597;DHT22;5854;48.072;16.286;2023-02-13T11:32:26;6.90;64.80
11597;DHT22;5854;48.072;16.286;2023-02-13T11:34:55;6.90;63.10
11597;DHT22;5854;48.072;16.286;2023-02-13T11:37:25;7.00;63.00
11597;DHT22;5854;48.072;16.286;2023-02-13T11:39:54;7.00;62.50
11597;DHT22;5854;48.072;16.286;2023-02-13T11:42:27;7.10;63.10
11597;DHT22;5854;48.072;16.286;2023-02-13T11:45:00;7.20;62.30
11597;DHT22;5854;48.072;16.286;2023-02-13T11:47:38;7.20;62.30
11597;DHT22;5854;48.072;16.286;2023-02-13T11:50:20;7.30;62.00
11597;DHT22;5854;48.072;16.286;2023-02-13T11:52:56;7.00;61.20
11597;DHT22;5854;48.072;16.286;2023-02-13T11:55:28;7.10;62.20
11597;DHT22;5854;48.072;16.286;2023-02-13T11:57:58;7.00;62.70
11597;DHT22;5854;48.072;16.286;2023-02-13T12:00:32;7.10;62.60
11597;DHT22;5854;48.072;16.286;2023-02-13T12:03:27;7.30;62.20
11597;DHT22;5854;48.072;16.286;2023-02-13T12:06:03;7.40;63.00
11597;DHT22;5854;48.072;16.286;2023-02-13T12:08:34;7.50;61.60
11597;DHT22;5854;48.072;16.286;2023-02-13T12:11:07;7.50;60.50
11597;DHT22;5854;48.072;16.286;2023-02-13T12:13:44;7.40;59.90
11597;DHT22;5854;48.072;16.286;2023-02-13T12:16:34;7.40;60.20
11597;DHT22;5854;48.072;16.286;2023-02-13T12:19:05;7.30;60.90
11597;DHT22;5854;48.072;16.286;2023-02-13T12:21:47;7.40;60.70
11597;DHT22;5854;48.072;16.286;2023-02-13T12:24:37;7.40;60.60
11597;DHT22;5854;48.072;16.286;2023-02-13T12:27:16;7.40;59.80
11597;DHT22;5854;48.072;16.286;2023-02-13T12:30:04;7.40;59.90
11597;DHT22;5854;48.072;16.286;2023-02-13T12:32:48;7.40;59.30
11597;DHT22;5854;48.072;16.286;2023-02-13T12:35:40;7.40;59.60
11597;DHT22;5854;48.072;16.286;2023-02-13T12:38:23;7.40;59.70
11597;DHT22;5854;48.072;16.286;2023-02-13T12:41:15;7.40;59.00
11597;DHT22;5854;48.072;16.286;2023-02-13T12:44:10;7.50;58.80
11597;DHT22;5854;48.072;16.286;2023-02-13T12:46:53;7.60;57.70
11597;DHT22;5854;48.072;16.286;2023-02-13T12:49:41;7.60;58.00
11597;DHT22;5854;48.072;16.286;2023-02-13T12:52:42;7.70;57.60
11597;DHT22;5854;48.072;16.286;2023-02-13T12:55:27;7.70;57.20
11597;DHT22;5854;48.072;16.286;2023-02-13T12:58:13;7.70;57.20
11597;DHT22;5854;48.072;16.286;2023-02-13T13:00:53;7.60;57.10
11597;DHT22;5854;48.072;16.286;2023-02-13T13:03:30;7.60;57.70
11597;DHT22;5854;48.072;16.286;2023-02-13T13:06:12;7.50;58.50
11597;DHT22;5854;48.072;16.286;2023-02-13T13:12:13;7.40;56.60
11597;DHT22;5854;48.072;16.286;2023-02-13T13:15:00;7.50;57.40
11597;DHT22;5854;48.072;16.286;2023-02-13T13:17:41;7.40;58.00
11597;DHT22;5854;48.072;16.286;2023-02-13T13:23:30;7.40;55.90
11597;DHT22;5854;48.072;16.286;2023-02-13T13:26:07;7.50;56.60
11597;DHT22;5854;48.072;16.286;2023-02-13T13:28:41;7.50;55.90
11597;DHT22;5854;48.072;16.286;2023-02-13T13:31:09;7.50;56.70
11597;DHT22;5854;48.072;16.286;2023-02-13T13:33:39;7.50;57.50
11597;DHT22;5854;48.072;16.286;2023-02-13T13:36:11;7.30;58.40
11597;DHT22;5854;48.072;16.286;2023-02-13T13:38:55;7.40;57.70
11597;DHT22;5854;48.072;16.286;2023-02-13T13:41:31;7.40;57.90
11597;DHT22;5854;48.072;16.286;2023-02-13T13:44:36;7.60;56.80
11597;DHT22;5854;48.072;16.286;2023-02-13T13:47:23;7.70;55.90
11597;DHT22;5854;48.072;16.286;2023-02-13T13:49:54;7.80;56.30
11597;DHT22;5854;48.072;16.286;2023-02-13T13:52:25;7.80;55.80
11597;DHT22;5854;48.072;16.286;2023-02-13T13:54:56;7.70;56.10
11597;DHT22;5854;48.072;16.286;2023-02-13T13:57:26;7.90;55.00
11597;DHT22;5854;48.072;16.286;2023-02-13T14:00:25;7.90;55.50
11597;DHT22;5854;48.072;16.286;2023-02-13T14:03:24;7.90;55.10
11597;DHT22;5854;48.072;16.286;2023-02-13T14:06:04;7.90;55.10
11597;DHT22;5854;48.072;16.286;2023-02-13T14:08:57;7.80;55.70
11597;DHT22;5854;48.072;16.286;2023-02-13T14:11:38;7.90;56.40
11597;DHT22;5854;48.072;16.286;2023-02-13T14:17:53;7.80;55.10
11597;DHT22;5854;48.072;16.286;2023-02-13T14:20:35;7.90;55.10
11597;DHT22;5854;48.072;16.286;2023-02-13T14:23:29;7.90;52.70
11597;DHT22;5854;48.072;16.286;2023-02-13T14:31:16;7.80;56.30
11597;DHT22;5854;48.072;16.286;2023-02-13T14:33:54;8.10;57.40
11597;DHT22;5854;48.072;16.286;2023-02-13T14:36:26;7.90;52.70
11597;DHT22;5854;48.072;16.286;2023-02-13T14:39:03;7.90;54.70
11597;DHT22;5854;48.072;16.286;2023-02-13T14:42:22;7.80;53.90
11597;DHT22;5854;48.072;16.286;2023-02-13T14:52:02;7.70;55.20
11597;DHT22;5854;48.072;16.286;2023-02-13T14:55:00;7.60;54.60
11597;DHT22;5854;48.072;16.286;2023-02-13T14:57:43;7.60;53.80
11597;DHT22;5854;48.072;16.286;2023-02-13T15:00:38;7.50;53.80
11597;DHT22;5854;48.072;16.286;2023-02-13T15:03:29;7.50;55.10
11597;DHT22;5854;48.072;16.286;2023-02-13T15:11:10;7.50;55.60
11597;DHT22;5854;48.072;16.286;2023-02-13T15:17:31;7.40;57.20
11597;DHT22;5854;48.072;16.286;2023-02-13T15:20:17;7.40;55.90
11597;DHT22;5854;48.072;16.286;2023-02-13T15:22:52;7.40;56.70
11597;DHT22;5854;48.072;16.286;2023-02-13T15:25:22;7.50;57.40
11597;DHT22;5854;48.072;16.286;2023-02-13T15:27:53;7.40;55.00
11597;DHT22;5854;48.072;16.286;2023-02-13T15:30:26;7.40;55.80
11597;DHT22;5854;48.072;16.286;2023-02-13T15:33:13;7.40;55.10
11597;DHT22;5854;48.072;16.286;2023-02-13T15:35:44;7.40;55.20
11597;DHT22;5854;48.072;16.286;2023-02-13T15:38:19;7.40;55.50
11597;DHT22;5854;48.072;16.286;2023-02-13T15:40:48;7.50;58.90
11597;DHT22;5854;48.072;16.286;2023-02-13T15:43:21;7.80;62.70
11597;DHT22;5854;48.072;16.286;2023-02-13T15:45:58;7.80;54.30
11597;DHT22;5854;48.072;16.286;2023-02-13T15:48:28;7.60;54.20
11597;DHT22;5854;48.072;16.286;2023-02-13T15:50:55;7.50;54.30
11597;DHT22;5854;48.072;16.286;2023-02-13T15:53:23;7.40;54.40
11597;DHT22;5854;48.072;16.286;2023-02-13T15:55:58;7.40;54.30
11597;DHT22;5854;48.072;16.286;2023-02-13T15:58:30;7.40;54.40
11597;DHT22;5854;48.072;16.286;2023-02-13T16:01:01;7.30;54.20
11597;DHT22;5854;48.072;16.286;2023-02-13T16:03:31;7.30;54.30
11597;DHT22;5854;48.072;16.286;2023-02-13T16:05:59;7.30;54.20
11597;DHT22;5854;48.072;16.286;2023-02-13T16:08:30;7.40;55.20
11597;DHT22;5854;48.072;16.286;2023-02-13T16:11:22;7.50;58.40
11597;DHT22;5854;48.072;16.286;2023-02-13T16:14:11;7.50;54.50
11597;DHT22;5854;48.072;16.286;2023-02-13T16:16:45;7.40;54.50
11597;DHT22;5854;48.072;16.286;2023-02-13T16:19:32;7.30;54.60
11597;DHT22;5854;48.072;16.286;2023-02-13T16:22:05;7.20;54.70
11597;DHT22;5854;48.072;16.286;2023-02-13T16:24:45;7.20;54.90
11597;DHT22;5854;48.072;16.286;2023-02-13T16:27:15;7.30;55.10
11597;DHT22;5854;48.072;16.286;2023-02-13T16:29:54;7.40;55.10
11597;DHT22;5854;48.072;16.286;2023-02-13T16:32:27;7.30;54.50
11597;DHT22;5854;48.072;16.286;2023-02-13T16:34:55;7.20;55.10
11597;DHT22;5854;48.072;16.286;2023-02-13T16:40:38;7.20;55.10
11597;DHT22;5854;48.072;16.286;2023-02-13T16:43:38;7.20;55.70
11597;DHT22;5854;48.072;16.286;2023-02-13T16:52:45;7.50;54.00
11597;DHT22;5854;48.072;16.286;2023-02-13T16:55:58;7.30;55.00
11597;DHT22;5854;48.072;16.286;2023-02-13T16:58:44;7.30;56.10
11597;DHT22;5854;48.072;16.286;2023-02-13T17:01:15;7.20;55.70
11597;DHT22;5854;48.072;16.286;2023-02-13T17:03:44;7.10;56.20
11597;DHT22;5854;48.072;16.286;2023-02-13T17:06:12;7.10;56.60
11597;DHT22;5854;48.072;16.286;2023-02-13T17:08:40;7.10;57.30
11597;DHT22;5854;48.072;16.286;2023-02-13T17:11:09;7.10;57.20
11597;DHT22;5854;48.072;16.286;2023-02-13T17:13:46;7.10;57.50
11597;DHT22;5854;48.072;16.286;2023-02-13T17:18:51;7.10;57.30
11597;DHT22;5854;48.072;16.286;2023-02-13T17:21:18;7.00;57.80
11597;DHT22;5854;48.072;16.286;2023-02-13T17:23:45;7.00;57.90
11597;DHT22;5854;48.072;16.286;2023-02-13T17:26:13;7.00;58.60
11597;DHT22;5854;48.072;16.286;2023-02-13T17:28:43;7.00;57.20
11597;DHT22;5854;48.072;16.286;2023-02-13T17:31:11;7.00;57.10
11597;DHT22;5854;48.072;16.286;2023-02-13T17:33:38;7.10;57.30
11597;DHT22;5854;48.072;16.286;2023-02-13T17:36:10;7.10;57.30
11597;DHT22;5854;48.072;16.286;2023-02-13T17:38:38;7.10;57.70
11597;DHT22;5854;48.072;16.286;2023-02-13T17:41:10;7.00;57.40
11597;DHT22;5854;48.072;16.286;2023-02-13T17:43:39;7.00;57.90
11597;DHT22;5854;48.072;16.286;2023-02-13T17:46:07;7.00;57.70
11597;DHT22;5854;48.072;16.286;2023-02-13T17:48:36;7.00;58.30
11597;DHT22;5854;48.072;16.286;2023-02-13T17:51:05;7.00;57.60
11597;DHT22;5854;48.072;16.286;2023-02-13T17:53:36;7.10;59.30
11597;DHT22;5854;48.072;16.286;2023-02-13T17:56:03;7.00;57.70
11597;DHT22;5854;48.072;16.286;2023-02-13T17:58:31;7.00;58.80
11597;DHT22;5854;48.072;16.286;2023-02-13T18:00:58;7.00;59.70
11597;DHT22;5854;48.072;16.286;2023-02-13T18:03:25;6.90;58.40
11597;DHT22;5854;48.072;16.286;2023-02-13T18:05:52;6.90;57.40
11597;DHT22;5854;48.072;16.286;2023-02-13T18:08:20;6.90;58.30
11597;DHT22;5854;48.072;16.286;2023-02-13T18:10:49;6.90;57.80
11597;DHT22;5854;48.072;16.286;2023-02-13T18:13:16;6.90;58.80
11597;DHT22;5854;48.072;16.286;2023-02-13T18:15:44;6.80;60.10
11597;DHT22;5854;48.072;16.286;2023-02-13T18:18:12;6.80;57.90
11597;DHT22;5854;48.072;16.286;2023-02-13T18:20:40;6.80;58.90
11597;DHT22;5854;48.072;16.286;2023-02-13T18:23:07;6.90;57.50
11597;DHT22;5854;48.072;16.286;2023-02-13T18:25:35;6.80;58.70
11597;DHT22;5854;48.072;16.286;2023-02-13T18:28:03;6.80;58.80
11597;DHT22;5854;48.072;16.286;2023-02-13T18:30:30;6.80;59.30
11597;DHT22;5854;48.072;16.286;2023-02-13T18:32:57;6.80;58.10
11597;DHT22;5854;48.072;16.286;2023-02-13T18:35:29;6.80;58.70
11597;DHT22;5854;48.072;16.286;2023-02-13T18:37:57;6.80;59.50
11597;DHT22;5854;48.072;16.286;2023-02-13T18:40:24;6.80;58.30
11597;DHT22;5854;48.072;16.286;2023-02-13T18:42:51;6.80;58.60
11597;DHT22;5854;48.072;16.286;2023-02-13T18:45:20;6.70;58.50
11597;DHT22;5854;48.072;16.286;2023-02-13T18:47:47;6.70;59.20
11597;DHT22;5854;48.072;16.286;2023-02-13T18:50:14;6.70;57.50
11597;DHT22;5854;48.072;16.286;2023-02-13T18:52:41;6.70;57.70
11597;DHT22;5854;48.072;16.286;2023-02-13T18:55:08;6.60;58.10
11597;DHT22;5854;48.072;16.286;2023-02-13T18:57:35;6.60;58.90
11597;DHT22;5854;48.072;16.286;2023-02-13T19:00:09;6.70;60.10
11597;DHT22;5854;48.072;16.286;2023-02-13T19:02:40;6.60;59.60
11597;DHT22;5854;48.072;16.286;2023-02-13T19:05:07;6.60;60.00
11597;DHT22;5854;48.072;16.286;2023-02-13T19:07:34;6.50;58.90
11597;DHT22;5854;48.072;16.286;2023-02-13T19:10:02;6.60;59.70
11597;DHT22;5854;48.072;16.286;2023-02-13T19:12:29;6.60;59.50
11597;DHT22;5854;48.072;16.286;2023-02-13T19:14:59;6.60;59.60
11597;DHT22;5854;48.072;16.286;2023-02-13T19:17:26;6.70;60.90
11597;DHT22;5854;48.072;16.286;2023-02-13T19:19:54;6.70;61.10
11597;DHT22;5854;48.072;16.286;2023-02-13T19:22:21;6.80;59.40
11597;DHT22;5854;48.072;16.286;2023-02-13T19:24:48;6.80;58.60
11597;DHT22;5854;48.072;16.286;2023-02-13T19:27:15;6.80;59.20
11597;DHT22;5854;48.072;16.286;2023-02-13T19:29:43;6.80;60.10
11597;DHT22;5854;48.072;16.286;2023-02-13T19:32:13;6.80;60.10
11597;DHT22;5854;48.072;16.286;2023-02-13T19:34:40;6.80;60.70
11597;DHT22;5854;48.072;16.286;2023-02-13T19:37:11;6.80;60.10
11597;DHT22;5854;48.072;16.286;2023-02-13T19:39:38;6.80;60.50
11597;DHT22;5854;48.072;16.286;2023-02-13T19:42:05;6.80;59.60
11597;DHT22;5854;48.072;16.286;2023-02-13T19:44:32;6.80;58.40
11597;DHT22;5854;48.072;16.286;2023-02-13T19:47:02;6.70;59.90
11597;DHT22;5854;48.072;16.286;2023-02-13T19:49:29;6.70;59.80
11597;DHT22;5854;48.072;16.286;2023-02-13T19:51:57;6.70;60.30
11597;DHT22;5854;48.072;16.286;2023-02-13T19:54:25;6.70;61.50
11597;DHT22;5854;48.072;16.286;2023-02-13T19:56:52;6.70;61.80
11597;DHT22;5854;48.072;16.286;2023-02-13T19:59:24;6.70;61.80
11597;DHT22;5854;48.072;16.286;2023-02-13T20:01:52;6.70;61.40
11597;DHT22;5854;48.072;16.286;2023-02-13T20:04:19;6.70;62.40
11597;DHT22;5854;48.072;16.286;2023-02-13T20:06:47;6.60;59.10
11597;DHT22;5854;48.072;16.286;2023-02-13T20:09:15;6.50;62.50
11597;DHT22;5854;48.072;16.286;2023-02-13T20:11:44;6.50;61.50
11597;DHT22;5854;48.072;16.286;2023-02-13T20:14:12;6.50;62.30
11597;DHT22;5854;48.072;16.286;2023-02-13T20:16:40;6.50;61.90
11597;DHT22;5854;48.072;16.286;2023-02-13T20:19:08;6.50;60.80
11597;DHT22;5854;48.072;16.286;2023-02-13T20:21:36;6.60;62.50
11597;DHT22;5854;48.072;16.286;2023-02-13T20:24:04;6.60;62.90
11597;DHT22;5854;48.072;16.286;2023-02-13T20:26:32;6.50;61.70
11597;DHT22;5854;48.072;16.286;2023-02-13T20:29:01;6.40;62.20
11597;DHT22;5854;48.072;16.286;2023-02-13T21:05:31;6.00;63.80
11597;DHT22;5854;48.072;16.286;2023-02-13T22:44:16;4.90;68.90
11597;DHT22;5854;48.072;16.286;2023-02-13T22:46:53;5.00;67.50
11597;DHT22;5854;48.072;16.286;2023-02-13T22:49:27;5.00;66.10
11597;DHT22;5854;48.072;16.286;2023-02-13T22:52:04;5.00;67.10
11597;DHT22;5854;48.072;16.286;2023-02-13T22:54:35;5.00;67.70
11597;DHT22;5854;48.072;16.286;2023-02-13T22:57:06;5.10;68.90
11597;DHT22;5854;48.072;16.286;2023-02-13T22:59:42;5.10;68.00
11597;DHT22;5854;48.072;16.286;2023-02-13T23:02:13;5.10;67.10
11597;DHT22;5854;48.072;16.286;2023-02-13T23:07:18;4.80;70.00
11597;DHT22;5854;48.072;16.286;2023-02-13T23:09:50;4.90;70.20